Time;durP1;ratioP1;P1;durP2;ratioP2;P2;SDS_P1;SDS_P2;PMS_P1;PMS_P2;Temp;Humidity;BMP_temperature;BMP_pressure;BME280_temperature;BME280_humidity;BME280_pressure;Samples;Min_cycle;Max_cycle;Signal;HPM_P1;HPM_P2
2021/07/08 00:00:16;;;;;;;10.60;7.50;;;;;;;22.10;48.51;100659.66;5043994;28;20497;0
2021/07/08 00:02:43;;;;;;;13.18;7.60;;;;;;;22.02;49.16;100637.78;5038694;28;20529;-2
2021/07/08 00:05:11;;;;;;;11.88;7.70;;;;;;;22.22;48.34;100680.41;5044205;28;20048;1
2021/07/08 00:07:37;;;;;;;11.50;8.43;;;;;;;21.87;48.62;100625.97;5050216;28;20037;-2
2021/07/08 00:10:13;;;;;;;12.40;8.13;;;;;;;22.16;48.63;100671.81;5040985;28;20044;0
2021/07/08 00:12:40;;;;;;;10.95;7.68;;;;;;;21.81;49.76;100617.31;5039542;28;20513;0
2021/07/08 00:15:13;;;;;;;11.90;8.40;;;;;;;21.83;48.93;100643.88;5037138;28;20051;0
2021/07/08 00:17:43;;;;;;;9.75;7.22;;;;;;;22.02;48.67;100691.03;5048792;28;20057;0
2021/07/08 00:20:13;;;;;;;13.30;7.78;;;;;;;21.75;48.89;100636.19;5045033;28;20048;-7
2021/07/08 00:22:39;;;;;;;14.20;7.93;;;;;;;21.62;48.87;100624.31;5034739;28;20102;0
2021/07/08 00:25:11;;;;;;;11.07;7.88;;;;;;;22.01;49.07;100703.47;5039457;28;20114;0
2021/07/08 00:27:38;;;;;;;8.98;7.40;;;;;;;22.01;48.76;100700.81;5040709;28;20056;1
2021/07/08 00:30:06;;;;;;;15.20;8.25;;;;;;;21.84;49.16;100671.34;5040397;28;20059;-5
2021/07/08 00:32:32;;;;;;;11.13;8.07;;;;;;;21.96;48.96;100693.00;5042598;28;20051;2
2021/07/08 00:34:58;;;;;;;11.00;7.65;;;;;;;21.95;49.45;100701.94;5040209;28;20045;0
2021/07/08 00:37:25;;;;;;;11.32;8.35;;;;;;;21.94;49.92;100705.53;5046976;28;20029;1
2021/07/08 00:39:51;;;;;;;12.18;8.23;;;;;;;21.60;49.75;100664.31;5041178;28;20143;2
2021/07/08 00:42:17;;;;;;;12.40;8.63;;;;;;;21.60;50.29;100690.03;5039470;28;20157;1
2021/07/08 00:44:45;;;;;;;13.30;8.15;;;;;;;21.68;50.26;100705.69;5044654;28;20068;1
2021/07/08 00:47:11;;;;;;;11.57;8.10;;;;;;;21.72;50.39;100707.28;5050317;28;20345;1
2021/07/08 00:49:38;;;;;;;13.40;8.73;;;;;;;21.48;50.23;100672.72;5042120;28;20139;1
2021/07/08 00:52:05;;;;;;;15.30;8.52;;;;;;;21.49;50.56;100682.44;5040799;28;20099;1
2021/07/08 00:54:31;;;;;;;12.05;8.65;;;;;;;21.76;50.52;100716.91;5039091;28;20033;2
2021/07/08 00:56:57;;;;;;;14.93;9.38;;;;;;;21.51;50.62;100682.38;5041171;28;20102;1
2021/07/08 00:59:24;;;;;;;15.35;6.72;;;;;;;21.94;50.71;100717.97;5040611;28;20033;1
2021/07/08 01:02:01;;;;;;;14.75;6.50;;;;;;;22.20;50.79;100721.34;5040784;28;20065;1
2021/07/08 01:04:28;;;;;;;12.27;8.77;;;;;;;21.89;50.12;100698.63;5041120;28;20040;1
2021/07/08 01:06:55;;;;;;;12.48;9.18;;;;;;;21.87;50.51;100735.13;5044242;28;20132;1
2021/07/08 01:09:22;;;;;;;11.38;9.10;;;;;;;21.56;51.11;100713.25;5041960;28;20033;0
2021/07/08 01:11:48;;;;;;;13.43;9.48;;;;;;;21.52;51.28;100737.31;5040916;28;20075;1
2021/07/08 01:14:14;;;;;;;16.10;9.20;;;;;;;21.06;52.16;100678.75;5042415;28;20546;0
2021/07/08 01:16:40;;;;;;;11.43;9.05;;;;;;;21.19;52.50;100709.28;5040761;28;20041;1
2021/07/08 01:19:06;;;;;;;14.50;9.48;;;;;;;21.08;52.57;100707.03;5040599;28;20110;1
2021/07/08 01:21:35;;;;;;;12.85;9.48;;;;;;;21.07;52.72;100712.41;5040922;28;20119;1
2021/07/08 01:24:04;;;;;;;13.13;9.35;;;;;;;20.79;52.73;100668.19;5040553;28;20045;1
2021/07/08 01:26:31;;;;;;;13.55;9.30;;;;;;;21.06;52.56;100706.19;5040091;28;21323;1
2021/07/08 01:28:58;;;;;;;10.88;8.90;;;;;;;21.20;53.45;100742.91;5049339;28;20045;1
2021/07/08 01:31:25;;;;;;;14.73;9.35;;;;;;;21.00;53.03;100717.03;5041500;28;20030;0
2021/07/08 01:33:53;;;;;;;16.58;8.70;;;;;;;20.94;53.29;100707.50;5040482;28;20037;1
2021/07/08 01:36:19;;;;;;;12.82;8.85;;;;;;;20.98;53.54;100730.41;5041797;28;20040;1
2021/07/08 01:38:45;;;;;;;13.07;8.88;;;;;;;20.97;53.67;100739.28;5041434;28;20049;0
2021/07/08 01:41:12;;;;;;;14.60;8.80;;;;;;;20.95;53.94;100735.84;5038641;28;20448;1
2021/07/08 01:43:40;;;;;;;14.93;9.55;;;;;;;20.86;53.88;100720.22;5041819;28;20037;1
2021/07/08 01:46:07;;;;;;;13.43;9.57;;;;;;;20.83;53.88;100720.31;5041529;28;20048;1
2021/07/08 01:48:34;;;;;;;13.32;9.45;;;;;;;20.87;54.02;100727.28;5038945;28;20044;0
2021/07/08 01:51:29;;;;;;;15.52;9.02;;;;;;;20.93;54.03;100726.19;5033810;28;20041;1
2021/07/08 01:53:57;;;;;;;14.73;9.13;;;;;;;20.80;53.79;100715.97;5030616;28;20493;1
2021/07/08 01:56:23;;;;;;;16.67;9.60;;;;;;;20.57;54.17;100682.22;5034760;28;20505;1
2021/07/08 01:58:51;;;;;;;11.23;9.38;;;;;;;20.82;54.19;100731.88;5036039;28;20037;3
2021/07/08 02:01:20;;;;;;;12.60;9.32;;;;;;;20.88;54.15;100744.06;5035099;28;20516;1
2021/07/08 02:03:46;;;;;;;13.18;9.77;;;;;;;20.84;54.47;100724.72;5035906;28;20501;1
2021/07/08 02:06:12;;;;;;;16.38;9.38;;;;;;;20.73;54.06;100705.59;5036013;28;20049;-9
2021/07/08 02:08:39;;;;;;;14.30;9.57;;;;;;;20.73;54.24;100700.28;5058429;28;20036;1
2021/07/08 02:11:07;;;;;;;12.95;8.85;;;;;;;20.96;54.01;100740.22;5055488;28;20040;0
2021/07/08 02:13:34;;;;;;;13.88;9.48;;;;;;;20.71;54.01;100695.03;5055659;28;20070;0
2021/07/08 02:16:06;;;;;;;13.77;10.23;;;;;;;20.72;53.97;100685.28;5054619;28;20037;0
2021/07/08 02:18:34;;;;;;;16.67;9.23;;;;;;;21.02;53.95;100740.94;5055793;28;20158;1
2021/07/08 02:21:02;;;;;;;11.88;9.27;;;;;;;20.99;54.21;100737.44;5055914;28;20055;1
2021/07/08 02:23:28;;;;;;;12.95;9.73;;;;;;;20.96;54.08;100726.06;5055786;28;20048;1
2021/07/08 02:25:54;;;;;;;17.77;9.85;;;;;;;20.61;54.00;100667.03;5054314;28;20048;1
2021/07/08 02:28:21;;;;;;;11.65;9.60;;;;;;;20.61;53.84;100667.91;5074530;28;20036;1
2021/07/08 02:30:47;;;;;;;12.50;9.50;;;;;;;21.04;54.01;100741.72;5075570;28;20044;1
2021/07/08 02:33:13;;;;;;;11.82;8.95;;;;;;;21.04;53.30;100731.09;5059745;28;20047;1
2021/07/08 02:35:39;;;;;;;14.40;8.63;;;;;;;20.90;53.32;100705.00;5043397;28;20501;-10
2021/07/08 02:38:05;;;;;;;12.63;8.45;;;;;;;21.09;53.15;100716.72;5048047;28;20049;0
2021/07/08 02:40:34;;;;;;;10.40;8.40;;;;;;;20.90;52.70;100686.41;5033993;28;20079;1
2021/07/08 02:43:01;;;;;;;11.15;8.70;;;;;;;21.08;52.97;100717.66;5044562;28;20102;-7
2021/07/08 02:45:30;;;;;;;14.63;8.73;;;;;;;21.10;52.57;100706.94;5043648;28;20052;1
2021/07/08 02:47:59;;;;;;;13.50;8.98;;;;;;;21.28;52.69;100747.97;5047440;28;20079;0
2021/07/08 02:50:28;;;;;;;12.63;9.02;;;;;;;21.25;52.84;100748.94;5043359;28;20444;0
2021/07/08 02:52:54;;;;;;;11.30;9.32;;;;;;;21.07;52.65;100697.31;5043694;28;20025;1
2021/07/08 02:55:20;;;;;;;13.02;8.85;;;;;;;21.34;53.11;100747.75;5043767;28;20029;-1
2021/07/08 02:57:46;;;;;;;13.23;9.00;;;;;;;21.36;52.90;100750.34;5044904;28;20478;1
2021/07/08 03:00:16;;;;;;;11.88;8.85;;;;;;;21.39;52.92;100736.91;5053532;28;20044;1
2021/07/08 03:02:42;;;;;;;12.20;8.55;;;;;;;21.24;53.11;100703.78;5053378;28;20536;1
2021/07/08 03:05:10;;;;;;;11.02;8.45;;;;;;;21.37;52.62;100731.66;5053063;28;20144;0
2021/07/08 03:07:39;;;;;;;11.43;8.05;;;;;;;21.62;52.62;100742.25;5052886;28;20048;1
2021/07/08 03:10:09;;;;;;;14.40;8.82;;;;;;;21.52;52.38;100734.66;5052996;28;20033;0
2021/07/08 03:12:35;;;;;;;13.48;8.45;;;;;;;21.68;52.28;100750.94;5053344;28;20582;1
2021/07/08 03:15:01;;;;;;;23.65;8.65;;;;;;;21.70;52.80;100723.34;5053161;28;20493;1
2021/07/08 03:17:27;;;;;;;13.75;8.57;;;;;;;22.02;51.48;100717.66;5054610;28;20064;1
2021/07/08 03:19:53;;;;;;;12.48;8.43;;;;;;;22.11;51.16;100703.97;5054897;28;20595;1
2021/07/08 03:22:19;;;;;;;13.07;8.65;;;;;;;22.65;50.64;100754.19;5053621;28;20507;1
2021/07/08 03:24:46;;;;;;;13.70;8.32;;;;;;;22.33;50.98;100695.94;5054508;28;20052;1
2021/07/08 03:27:12;;;;;;;9.82;6.45;;;;;;;23.13;50.18;100752.97;5053547;28;20045;1
2021/07/08 03:29:38;;;;;;;10.02;7.80;;;;;;;22.58;50.06;100695.81;5054137;28;20515;1
2021/07/08 03:32:05;;;;;;;15.95;8.45;;;;;;;22.75;50.13;100756.38;5051505;28;20076;1
2021/07/08 03:34:31;;;;;;;11.35;8.30;;;;;;;22.42;50.70;100698.28;5054535;28;20433;1
2021/07/08 03:36:57;;;;;;;15.73;7.70;;;;;;;22.50;50.43;100715.72;5053006;28;20048;2
2021/07/08 03:39:23;;;;;;;10.05;7.70;;;;;;;22.72;50.25;100752.97;5063223;28;20068;-6
2021/07/08 03:41:50;;;;;;;12.65;8.27;;;;;;;22.74;50.03;100754.63;5074178;28;20503;1
2021/07/08 03:44:15;;;;;;;12.75;8.80;;;;;;;22.62;50.70;100750.69;5062752;28;20041;1
2021/07/08 03:46:42;;;;;;;12.10;7.80;;;;;;;22.28;51.08;100687.28;5054082;28;20041;1
2021/07/08 03:49:08;;;;;;;14.77;8.35;;;;;;;22.81;50.78;100757.91;5053093;28;20447;2
2021/07/08 03:51:40;;;;;;;16.65;10.35;;;;;;;22.58;50.23;100717.13;5046035;28;20037;1
2021/07/08 03:54:06;;;;;;;9.32;7.30;;;;;;;22.47;50.38;100690.06;5034851;28;20065;0
2021/07/08 03:56:32;;;;;;;11.05;5.55;;;;;;;23.11;50.31;100744.16;5042491;28;20479;1
2021/07/08 03:58:58;;;;;;;11.38;7.00;;;;;;;22.84;50.25;100691.16;5050794;28;20037;1
2021/07/08 04:01:25;;;;;;;10.88;7.60;;;;;;;22.74;49.67;100690.66;5046151;28;20084;-14
2021/07/08 04:03:52;;;;;;;11.18;6.75;;;;;;;23.09;49.49;100735.38;5044017;28;20043;0
2021/07/08 04:06:18;;;;;;;9.05;5.85;;;;;;;22.79;49.86;100682.47;5050787;28;20036;-7
2021/07/08 04:08:44;;;;;;;9.40;5.60;;;;;;;23.04;49.31;100689.38;5053517;28;20040;2
2021/07/08 04:11:10;;;;;;;9.43;6.70;;;;;;;22.90;48.99;100668.66;5057183;28;20051;-6
2021/07/08 04:13:37;;;;;;;9.88;6.75;;;;;;;23.41;49.04;100741.06;5054661;28;20141;1
2021/07/08 04:16:03;;;;;;;13.23;5.53;;;;;;;23.37;48.95;100716.31;5033874;28;20396;2
2021/07/08 04:18:29;;;;;;;9.93;6.28;;;;;;;23.29;48.49;100698.00;5054851;28;20143;2
2021/07/08 04:20:55;;;;;;;11.10;4.93;;;;;;;23.84;49.23;100738.19;5071953;28;20050;2
2021/07/08 04:23:21;;;;;;;12.02;5.07;;;;;;;24.06;48.34;100732.69;5071749;28;20568;2
2021/07/08 04:25:47;;;;;;;11.50;4.68;;;;;;;24.29;48.62;100752.94;5071989;28;20040;1
2021/07/08 04:28:14;;;;;;;10.27;5.13;;;;;;;24.05;47.35;100749.66;5071469;28;20600;2
2021/07/08 04:30:41;;;;;;;7.63;5.47;;;;;;;23.91;45.65;100704.91;5070924;28;20036;2
2021/07/08 04:33:09;;;;;;;12.82;4.57;;;;;;;24.18;47.71;100718.72;5071441;28;20052;2
2021/07/08 04:35:39;;;;;;;12.05;5.20;;;;;;;24.61;47.32;100748.66;5054750;28;20089;2
2021/07/08 04:38:08;;;;;;;10.02;5.05;;;;;;;24.76;47.27;100760.38;5072338;28;20051;1
2021/07/08 04:40:36;;;;;;;8.10;4.45;;;;;;;24.55;47.18;100732.91;5066679;28;20037;1
2021/07/08 04:43:02;;;;;;;9.40;5.38;;;;;;;24.58;45.66;100726.56;5071511;28;20052;1
2021/07/08 04:45:29;;;;;;;11.63;4.80;;;;;;;24.77;47.30;100753.25;5059679;28;20041;2
2021/07/08 04:47:55;;;;;;;8.70;4.43;;;;;;;24.81;47.59;100746.78;5053268;28;20373;1
2021/07/08 04:50:23;;;;;;;9.82;5.75;;;;;;;24.39;47.10;100683.84;5052905;28;20124;1
2021/07/08 04:52:50;;;;;;;8.68;5.30;;;;;;;24.85;45.62;100744.78;5036510;28;20033;2
2021/07/08 04:55:18;;;;;;;10.52;5.43;;;;;;;24.63;45.91;100727.22;5067945;28;20447;1
2021/07/08 04:57:45;;;;;;;11.98;6.25;;;;;;;24.62;45.73;100733.47;5071405;28;20054;0
2021/07/08 05:00:13;;;;;;;10.38;5.07;;;;;;;24.77;46.15;100755.91;5071023;28;20123;2
2021/07/08 05:02:43;;;;;;;11.10;5.35;;;;;;;24.60;46.06;100730.88;5070726;28;20036;1
2021/07/08 05:05:10;;;;;;;8.27;5.82;;;;;;;24.57;46.22;100709.63;5073182;28;20058;2
2021/07/08 05:07:37;;;;;;;7.70;5.70;;;;;;;24.69;45.37;100734.94;5072876;28;20045;2
2021/07/08 05:10:06;;;;;;;9.15;5.25;;;;;;;24.92;46.40;100756.91;5072763;28;20043;1
2021/07/08 05:12:32;;;;;;;9.77;5.75;;;;;;;24.83;45.61;100768.94;5072979;28;20178;1
2021/07/08 05:14:58;;;;;;;9.88;6.10;;;;;;;24.78;46.23;100765.66;5072879;28;20101;1
2021/07/08 05:17:25;;;;;;;8.43;4.90;;;;;;;24.99;46.77;100766.38;5070010;28;20056;1
2021/07/08 05:19:51;;;;;;;9.15;5.15;;;;;;;24.77;46.40;100770.16;5052636;28;20032;1
2021/07/08 05:22:20;;;;;;;9.05;5.30;;;;;;;24.86;46.63;100765.25;5052542;28;20484;1
2021/07/08 05:24:47;;;;;;;11.35;5.60;;;;;;;24.93;47.16;100772.88;5072571;28;20040;1
2021/07/08 05:27:17;;;;;;;8.85;4.45;;;;;;;25.01;46.56;100764.47;5060703;28;20076;1
2021/07/08 05:29:45;;;;;;;9.40;4.93;;;;;;;25.12;46.45;100773.72;5032363;28;20080;1
2021/07/08 05:32:15;;;;;;;8.13;5.95;;;;;;;25.10;45.97;100779.16;5035175;28;20095;1
2021/07/08 05:34:42;;;;;;;9.60;5.88;;;;;;;25.08;45.90;100767.66;5036241;28;20476;1
2021/07/08 05:37:09;;;;;;;10.98;6.40;;;;;;;24.81;46.18;100744.13;5034794;28;20045;1
2021/07/08 05:39:35;;;;;;;10.00;5.85;;;;;;;24.88;46.29;100758.88;5036408;28;20040;1
2021/07/08 05:42:02;;;;;;;11.27;5.32;;;;;;;24.89;46.20;100743.72;5045350;28;20040;1
2021/07/08 05:44:28;;;;;;;13.65;6.13;;;;;;;25.08;45.41;100768.56;5057613;28;20033;1
2021/07/08 05:46:54;;;;;;;10.15;5.53;;;;;;;25.17;46.48;100764.50;5056110;28;20477;1
2021/07/08 05:49:20;;;;;;;9.73;4.72;;;;;;;25.33;46.01;100767.25;5054654;28;20037;1
2021/07/08 05:51:47;;;;;;;9.43;5.72;;;;;;;25.27;45.38;100765.75;5054991;28;20044;1
2021/07/08 05:54:13;;;;;;;8.77;4.20;;;;;;;25.26;46.07;100764.00;5054688;28;20045;1
2021/07/08 05:56:39;;;;;;;9.85;6.53;;;;;;;25.30;45.67;100767.38;5054920;28;20041;0
2021/07/08 05:59:05;;;;;;;10.93;6.32;;;;;;;25.39;46.04;100771.41;5055562;28;20032;1
2021/07/08 06:01:31;;;;;;;12.45;5.82;;;;;;;25.35;46.25;100772.53;5055542;28;20037;1
2021/07/08 06:03:57;;;;;;;12.40;6.13;;;;;;;25.22;46.43;100749.06;5065738;28;20048;0
2021/07/08 06:06:23;;;;;;;13.60;4.60;;;;;;;25.41;46.19;100759.69;5073235;28;20036;0
2021/07/08 06:08:50;;;;;;;9.55;6.10;;;;;;;25.36;46.18;100768.91;5076840;28;20044;1
2021/07/08 06:11:16;;;;;;;13.82;6.28;;;;;;;25.47;45.91;100773.69;5075802;28;20064;0
2021/07/08 06:13:42;;;;;;;9.50;5.80;;;;;;;25.56;46.13;100765.16;5076305;28;20032;0
2021/07/08 06:16:08;;;;;;;11.70;5.10;;;;;;;25.59;45.74;100757.81;5075561;28;20044;0
2021/07/08 06:18:36;;;;;;;12.77;6.60;;;;;;;25.60;45.78;100769.38;5075435;28;20106;1
2021/07/08 06:21:03;;;;;;;14.40;6.60;;;;;;;25.62;45.95;100764.81;5075798;28;20036;-2
2021/07/08 06:23:31;;;;;;;11.43;6.35;;;;;;;25.65;45.20;100759.28;5075820;28;20048;0
2021/07/08 06:25:58;;;;;;;16.67;6.60;;;;;;;25.47;45.54;100747.78;5075833;28;20037;2
2021/07/08 06:28:24;;;;;;;9.05;4.90;;;;;;;25.71;45.97;100761.63;5060231;28;20044;0
2021/07/08 06:30:50;;;;;;;11.32;6.07;;;;;;;25.91;45.47;100756.97;5065721;28;20534;1
2021/07/08 06:33:17;;;;;;;9.63;4.95;;;;;;;26.03;45.19;100763.44;5061780;28;20123;1
2021/07/08 06:35:43;;;;;;;6.60;4.32;;;;;;;26.06;45.24;100752.56;5055723;28;20453;0
2021/07/08 06:38:09;;;;;;;12.43;5.88;;;;;;;26.15;44.68;100764.59;5057055;28;20051;1
2021/07/08 06:40:36;;;;;;;8.27;4.72;;;;;;;26.10;43.71;100759.50;5054016;28;20052;1
2021/07/08 06:43:02;;;;;;;11.48;4.80;;;;;;;26.02;45.09;100735.78;5068030;28;20044;1
2021/07/08 06:45:35;;;;;;;13.20;5.40;;;;;;;26.22;45.03;100765.97;5041271;28;20563;0
2021/07/08 06:48:05;;;;;;;12.43;5.05;;;;;;;26.25;44.83;100761.28;5073716;28;20047;1
2021/07/08 06:50:35;;;;;;;10.55;4.65;;;;;;;26.27;44.30;100749.59;5075369;28;20419;-2
2021/07/08 06:53:03;;;;;;;16.30;6.88;;;;;;;26.18;43.77;100732.22;5072515;28;20500;1
2021/07/08 06:55:31;;;;;;;8.57;5.00;;;;;;;26.27;42.73;100763.88;5055620;28;20392;0
2021/07/08 06:58:00;;;;;;;6.28;4.03;;;;;;;26.34;44.19;100757.19;5054746;28;20128;-3
2021/07/08 07:00:38;;;;;;;10.15;5.57;;;;;;;26.46;42.56;100769.03;5054171;28;20045;1
2021/07/08 07:03:06;;;;;;;8.55;5.70;;;;;;;26.41;43.34;100763.06;5064946;28;20060;0
2021/07/08 07:05:32;;;;;;;15.15;5.95;;;;;;;26.54;41.48;100772.13;5074943;28;20068;0
2021/07/08 07:07:59;;;;;;;7.90;5.10;;;;;;;26.66;39.88;100775.91;5055939;28;20411;0
2021/07/08 07:10:27;;;;;;;7.43;4.65;;;;;;;26.56;40.04;100775.56;5058921;28;20131;0
2021/07/08 07:12:56;;;;;;;8.25;3.70;;;;;;;26.63;42.00;100775.22;5054618;28;20452;1
2021/07/08 07:15:29;;;;;;;7.13;3.92;;;;;;;26.77;41.27;100777.97;5050100;28;20052;0
2021/07/08 07:17:59;;;;;;;7.65;5.18;;;;;;;26.86;41.18;100773.88;5052717;28;20075;2
2021/07/08 07:20:26;;;;;;;7.60;4.30;;;;;;;26.82;42.34;100769.66;5073343;28;20134;0
2021/07/08 07:22:52;;;;;;;7.40;4.10;;;;;;;26.97;41.47;100767.84;5059339;28;20036;0
2021/07/08 07:25:21;;;;;;;7.45;5.45;;;;;;;27.16;40.31;100775.66;5057879;28;20046;0
2021/07/08 07:27:52;;;;;;;8.55;4.88;;;;;;;27.02;38.75;100755.03;5061263;28;20067;0
2021/07/08 07:30:25;;;;;;;8.55;5.32;;;;;;;26.87;38.42;100746.94;5060192;28;20047;-2
2021/07/08 07:32:53;;;;;;;10.55;4.43;;;;;;;27.16;38.23;100756.84;5064963;28;20044;1
2021/07/08 07:35:20;;;;;;;9.15;5.00;;;;;;;27.32;38.17;100771.03;5053617;28;20047;1
2021/07/08 07:37:49;;;;;;;7.72;4.03;;;;;;;27.33;38.21;100767.41;5062541;28;20052;1
2021/07/08 07:40:18;;;;;;;6.43;4.53;;;;;;;27.49;37.68;100777.22;5066138;28;20447;1
2021/07/08 07:42:48;;;;;;;5.68;3.83;;;;;;;27.47;39.92;100768.38;5054662;28;20048;0
2021/07/08 07:45:17;;;;;;;5.57;4.32;;;;;;;27.47;38.80;100742.41;5054115;28;20048;0
2021/07/08 07:47:43;;;;;;;10.32;4.68;;;;;;;27.46;37.07;100735.31;5053912;28;20064;1
2021/07/08 07:50:10;;;;;;;7.53;4.80;;;;;;;27.71;38.38;100753.38;5054724;28;20041;1
2021/07/08 07:52:36;;;;;;;7.70;5.30;;;;;;;27.75;37.12;100770.16;5056279;28;20046;1
2021/07/08 07:55:06;;;;;;;7.88;3.90;;;;;;;27.61;37.95;100737.97;5059216;28;20392;0
2021/07/08 07:57:34;;;;;;;6.47;3.85;;;;;;;27.77;40.16;100762.00;5012656;28;20509;2
2021/07/08 08:00:00;;;;;;;8.85;5.22;;;;;;;27.96;37.15;100759.84;5012019;28;20593;0
2021/07/08 08:02:26;;;;;;;5.82;4.20;;;;;;;27.84;39.10;100753.44;5011864;28;20045;0
2021/07/08 08:04:56;;;;;;;5.93;3.92;;;;;;;27.78;39.90;100759.22;5006279;28;20454;1
2021/07/08 08:10:09;;;;;;;7.65;4.93;;;;;;;27.67;35.67;100702.66;5009561;28;20041;-1
2021/07/08 08:12:36;;;;;;;7.68;5.72;;;;;;;28.01;35.68;100759.56;5010015;28;20142;-3
2021/07/08 08:15:08;;;;;;;8.82;4.10;;;;;;;27.89;39.12;100762.09;5011712;28;20053;-3
2021/07/08 08:17:37;;;;;;;9.18;4.57;;;;;;;27.95;36.42;100762.66;5011234;28;20069;-3
2021/07/08 08:20:04;;;;;;;7.03;4.93;;;;;;;27.76;36.01;100753.09;4995259;28;20041;-3
2021/07/08 08:22:31;;;;;;;8.20;5.45;;;;;;;27.86;36.43;100762.28;4995034;28;20058;-2
2021/07/08 08:24:57;;;;;;;7.30;5.57;;;;;;;27.87;36.25;100764.03;5011315;28;20561;-2
2021/07/08 08:27:26;;;;;;;6.40;5.43;;;;;;;27.60;36.23;100734.44;5010202;28;20417;-3
2021/07/08 08:29:52;;;;;;;7.30;4.40;;;;;;;27.76;39.31;100765.69;5010397;28;20057;-3
2021/07/08 08:32:18;;;;;;;8.70;5.72;;;;;;;27.93;36.78;100762.75;5011313;28;20046;-2
2021/07/08 08:34:45;;;;;;;7.50;5.40;;;;;;;27.96;36.44;100742.88;5011440;28;20500;-4
2021/07/08 08:37:14;;;;;;;8.18;5.38;;;;;;;28.26;36.24;100752.59;5026870;28;20557;-4
2021/07/08 08:39:42;;;;;;;6.75;5.75;;;;;;;28.18;35.55;100748.56;5011055;28;20046;-3
2021/07/08 08:42:08;;;;;;;7.70;6.25;;;;;;;28.19;36.00;100766.44;5010965;28;20493;-3
2021/07/08 08:44:37;;;;;;;9.82;5.93;;;;;;;27.96;38.32;100759.00;5011218;28;20057;-3
2021/07/08 08:47:07;;;;;;;10.40;5.53;;;;;;;27.97;39.14;100755.34;5007520;28;20061;-2
2021/07/08 08:49:40;;;;;;;7.90;5.05;;;;;;;28.01;37.48;100756.88;5042820;28;20076;-2
2021/07/08 08:52:08;;;;;;;8.68;5.68;;;;;;;27.92;36.33;100765.53;5051438;28;20041;-4
2021/07/08 08:54:35;;;;;;;10.57;6.00;;;;;;;27.89;36.13;100755.84;5051169;28;20036;-3
2021/07/08 08:57:03;;;;;;;11.98;5.70;;;;;;;28.02;36.42;100755.94;5051067;28;20124;-3
2021/07/08 08:59:29;;;;;;;13.10;5.00;;;;;;;27.90;39.67;100739.63;5053474;28;20049;-2
2021/07/08 09:02:13;;;;;;;10.18;4.47;;;;;;;27.98;39.87;100749.03;5053528;28;20496;-2
2021/07/08 09:04:40;;;;;;;10.30;4.90;;;;;;;27.88;37.46;100746.91;5052234;28;20029;-3
2021/07/08 09:07:25;;;;;;;14.15;5.90;;;;;;;27.89;39.06;100740.59;5051668;28;20469;-3
2021/07/08 09:10:00;;;;;;;8.02;6.03;;;;;;;27.62;36.38;100711.00;5052716;28;20037;-3
2021/07/08 09:12:27;;;;;;;10.93;4.40;;;;;;;27.85;39.90;100730.16;5052632;28;20044;-3
2021/07/08 09:15:14;;;;;;;10.02;5.90;;;;;;;28.05;36.67;100742.31;5049991;28;20092;-3
2021/07/08 09:17:42;;;;;;;10.13;6.20;;;;;;;28.01;36.54;100746.97;5052192;28;20420;-2
2021/07/08 09:20:14;;;;;;;12.95;5.93;;;;;;;27.97;36.48;100733.84;5051781;28;20528;-2
2021/07/08 09:22:41;;;;;;;10.70;5.95;;;;;;;28.00;36.15;100709.47;5051356;28;20041;-3
2021/07/08 09:25:19;;;;;;;10.43;5.90;;;;;;;28.23;36.29;100742.91;5050664;28;20044;-2
2021/07/08 09:28:15;;;;;;;7.78;4.65;;;;;;;28.44;38.51;100745.13;5069585;28;20428;-3
2021/07/08 09:30:44;;;;;;;7.35;5.60;;;;;;;28.41;36.02;100743.50;5072957;28;20441;-2
2021/07/08 09:33:31;;;;;;;9.30;5.85;;;;;;;28.46;37.65;100743.19;5052270;28;20075;-2
2021/07/08 09:36:12;;;;;;;9.05;5.90;;;;;;;28.34;35.79;100734.13;5053354;28;20454;-4
2021/07/08 09:38:41;;;;;;;10.63;5.35;;;;;;;28.46;37.05;100735.09;5046175;28;20068;-2
2021/07/08 09:41:21;;;;;;;10.45;5.25;;;;;;;28.42;35.98;100725.53;5052851;28;20135;-2
2021/07/08 09:43:48;;;;;;;8.45;6.03;;;;;;;28.86;35.50;100735.97;5051875;28;20507;-3
2021/07/08 09:46:15;;;;;;;9.00;5.45;;;;;;;28.87;34.64;100731.44;5052437;28;20049;-2
2021/07/08 09:49:04;;;;;;;6.78;4.25;;;;;;;28.81;37.38;100727.34;5052110;28;20114;-3
2021/07/08 09:51:32;;;;;;;7.88;3.97;;;;;;;28.73;37.43;100724.31;5051982;28;20098;-3
2021/07/08 09:54:07;;;;;;;8.43;5.90;;;;;;;28.76;34.25;100723.25;5052357;28;20037;-3
2021/07/08 09:56:49;;;;;;;6.13;4.32;;;;;;;28.73;34.42;100713.56;5052213;28;20047;-5
2021/07/08 09:59:21;;;;;;;8.60;5.65;;;;;;;28.61;37.13;100719.75;5052514;28;20099;-3
2021/07/08 10:01:59;;;;;;;8.10;5.88;;;;;;;28.71;36.31;100713.66;5051919;28;20144;-2
2021/07/08 10:04:26;;;;;;;11.80;6.38;;;;;;;29.01;35.04;100714.34;5051947;28;20044;-2
2021/07/08 10:06:54;;;;;;;11.63;5.70;;;;;;;29.03;35.12;100705.19;5050887;28;20040;-2
2021/07/08 10:09:22;;;;;;;6.18;4.65;;;;;;;28.85;36.80;100710.03;5051834;28;20044;-2
2021/07/08 10:11:55;;;;;;;10.07;6.05;;;;;;;28.85;35.00;100711.84;5051417;28;20037;-3
2021/07/08 10:14:22;;;;;;;7.80;5.20;;;;;;;28.73;35.11;100721.63;5051099;28;20037;-3
2021/07/08 10:16:54;;;;;;;9.35;5.90;;;;;;;28.76;35.00;100715.19;5063850;28;20127;-3
2021/07/08 10:19:23;;;;;;;7.47;5.78;;;;;;;28.64;34.97;100681.88;5075951;28;20044;-3
2021/07/08 10:21:52;;;;;;;7.80;5.85;;;;;;;28.94;35.03;100710.34;5070239;28;20037;-3
2021/07/08 10:24:19;;;;;;;12.50;6.18;;;;;;;29.02;34.93;100707.97;5054382;28;20053;-4
2021/07/08 10:26:46;;;;;;;8.93;5.53;;;;;;;29.09;35.22;100706.56;5055407;28;20051;-4
2021/07/08 10:29:14;;;;;;;9.13;5.72;;;;;;;29.15;34.53;100697.19;5063768;28;20036;-3
2021/07/08 10:31:41;;;;;;;8.50;6.05;;;;;;;29.52;34.53;100705.34;5074384;28;20036;-3
2021/07/08 10:34:16;;;;;;;8.27;5.45;;;;;;;29.33;34.73;100703.13;5067490;28;20037;-3
2021/07/08 10:36:45;;;;;;;9.35;6.38;;;;;;;29.50;35.11;100701.88;5055656;28;20052;-3
2021/07/08 10:39:15;;;;;;;7.57;6.22;;;;;;;29.53;34.36;100707.91;5055255;28;20048;-4
2021/07/08 10:41:46;;;;;;;11.00;6.18;;;;;;;29.40;35.92;100684.66;5063756;28;20054;-4
2021/07/08 10:44:40;;;;;;;9.18;5.70;;;;;;;29.51;34.46;100666.75;5064223;28;20041;-3
2021/07/08 10:47:30;;;;;;;7.00;5.65;;;;;;;29.46;33.78;100685.09;5054218;28;20174;-3
2021/07/08 10:49:57;;;;;;;8.20;5.80;;;;;;;29.22;34.48;100663.47;5053815;28;20045;-2
2021/07/08 10:52:45;;;;;;;6.53;5.20;;;;;;;29.23;35.62;100693.94;5053909;28;20080;-3
2021/07/08 10:55:31;;;;;;;8.65;5.18;;;;;;;29.63;35.57;100694.63;5059815;28;20039;-4
2021/07/08 10:57:57;;;;;;;8.20;5.97;;;;;;;29.87;33.87;100699.22;5059017;28;20048;-3
2021/07/08 11:00:49;;;;;;;8.93;5.97;;;;;;;30.01;34.10;100699.03;5053847;28;20067;-2
2021/07/08 11:03:41;;;;;;;10.30;6.60;;;;;;;29.60;33.87;100696.69;5054463;28;20045;-3
2021/07/08 11:06:31;;;;;;;7.03;5.97;;;;;;;29.43;34.04;100685.31;5053555;28;20041;-4
2021/07/08 11:09:16;;;;;;;8.82;6.40;;;;;;;29.33;33.96;100686.94;5067728;28;20044;-3
2021/07/08 11:11:45;;;;;;;11.32;6.53;;;;;;;29.37;34.90;100685.75;5033598;28;20037;-3
2021/07/08 11:14:14;;;;;;;10.00;6.20;;;;;;;29.21;35.96;100692.22;5067047;28;20070;-3
2021/07/08 11:16:59;;;;;;;7.35;5.60;;;;;;;29.32;34.42;100682.53;5073326;28;20109;-3
2021/07/08 11:19:25;;;;;;;11.68;6.32;;;;;;;29.47;34.86;100680.56;5073298;28;20055;-3
2021/07/08 11:22:08;;;;;;;13.15;6.55;;;;;;;29.46;35.30;100679.69;5071676;28;20047;-4
2021/07/08 11:24:47;;;;;;;9.32;6.05;;;;;;;29.35;34.29;100674.25;5053775;28;20056;-3
2021/07/08 11:27:30;;;;;;;7.63;5.95;;;;;;;29.48;33.74;100649.97;5052975;28;20381;-3
2021/07/08 11:30:17;;;;;;;9.93;6.13;;;;;;;29.96;33.45;100676.09;5052943;28;20068;-4
2021/07/08 11:32:56;;;;;;;7.18;5.85;;;;;;;30.14;32.58;100669.31;5047469;28;20494;-4
2021/07/08 11:35:33;;;;;;;8.57;5.80;;;;;;;30.19;32.77;100677.03;5054212;28;20036;-4
2021/07/08 11:38:03;;;;;;;8.55;6.32;;;;;;;29.88;32.69;100675.81;5056636;28;20037;0
2021/07/08 11:40:35;;;;;;;7.75;5.50;;;;;;;29.72;35.07;100654.50;5065557;28;20051;0
2021/07/08 11:43:36;;;;;;;8.77;6.03;;;;;;;29.78;34.92;100672.94;5056420;28;20044;0
2021/07/08 11:46:12;;;;;;;9.68;6.45;;;;;;;29.79;33.44;100669.22;5052757;28;20586;0